createdAt,value
2024-04-06T00:00:45.785Z,0.00
2024-04-06T00:01:46.161Z,0.00
2024-04-06T00:02:45.729Z,0.00
2024-04-06T00:03:53.062Z,0.00
2024-04-06T00:04:47.216Z,0.00
2024-04-06T00:05:45.687Z,0.00
2024-04-06T00:06:46.052Z,0.00
2024-04-06T00:07:45.624Z,0.00
2024-04-06T00:08:45.639Z,0.00
2024-04-06T00:09:45.684Z,0.00
2024-04-06T00:10:45.595Z,0.00
2024-04-06T00:11:45.995Z,0.00
2024-04-06T00:12:45.591Z,0.00
2024-04-06T00:13:45.567Z,0.00
2024-04-06T00:14:45.612Z,0.00
2024-04-06T00:15:45.585Z,0.00
2024-04-06T00:16:45.522Z,0.00
2024-04-06T00:17:46.507Z,0.00
2024-04-06T00:18:45.476Z,0.00
2024-04-06T00:19:45.524Z,0.00
2024-04-06T00:20:45.505Z,0.00
2024-04-06T00:21:45.478Z,0.00
2024-04-06T00:22:45.871Z,0.00
2024-04-06T00:23:45.454Z,0.00
2024-04-06T00:24:45.453Z,0.00
2024-04-06T00:25:45.462Z,0.00
2024-04-06T00:26:45.437Z,0.00
2024-04-06T00:27:45.856Z,0.00
2024-04-06T00:28:45.375Z,0.00
2024-04-06T00:29:45.413Z,0.00
2024-04-06T00:30:45.335Z,0.00
2024-04-06T00:31:45.370Z,0.00
2024-04-06T00:32:45.320Z,0.00
2024-04-06T00:33:45.744Z,0.00
2024-04-06T00:34:45.259Z,0.00
2024-04-06T00:35:45.294Z,0.00
2024-04-06T00:36:45.300Z,0.00
2024-04-06T00:37:45.976Z,0.00
2024-04-06T00:38:45.253Z,0.00
2024-04-06T00:39:45.653Z,0.00
2024-04-06T00:40:45.233Z,0.00
2024-04-06T00:41:45.252Z,0.00
2024-04-06T00:42:45.238Z,0.00
2024-04-06T00:43:45.145Z,0.00
2024-04-06T00:44:45.594Z,0.00
2024-04-06T00:45:45.429Z,0.00
2024-04-06T00:46:45.135Z,0.00
2024-04-06T00:47:45.149Z,0.00
2024-04-06T00:48:45.149Z,0.00
2024-04-06T00:49:45.535Z,0.00
2024-04-06T00:50:45.129Z,0.00
2024-04-06T00:51:45.112Z,0.00
2024-04-06T00:52:45.077Z,0.00
2024-04-06T00:53:45.134Z,0.00
2024-04-06T00:54:45.475Z,0.00
2024-04-06T00:55:45.018Z,0.00
2024-04-06T00:56:45.059Z,0.00
2024-04-06T00:57:45.022Z,0.00
2024-04-06T00:58:44.999Z,0.00
2024-04-06T00:59:44.984Z,0.00
2024-04-06T01:00:45.432Z,0.00
2024-04-06T01:01:57.110Z,0.00
2024-04-06T01:02:46.436Z,0.00
2024-04-06T01:03:44.876Z,0.00
2024-04-06T01:04:45.006Z,0.00
2024-04-06T01:05:44.912Z,0.00
2024-04-06T01:06:45.323Z,0.00
2024-04-06T01:07:44.880Z,0.00
2024-04-06T01:08:44.834Z,0.00
2024-04-06T01:09:44.821Z,0.00
2024-04-06T01:10:44.910Z,0.00
2024-04-06T01:11:44.804Z,0.00
2024-04-06T01:12:45.270Z,0.00
2024-04-06T01:13:44.788Z,0.00
2024-04-06T01:14:44.775Z,0.00
2024-04-06T01:15:44.792Z,0.00
2024-04-06T01:16:44.722Z,0.00
2024-04-06T01:17:44.743Z,0.00
2024-04-06T01:18:44.694Z,0.00
2024-04-06T01:19:44.736Z,0.00
2024-04-06T01:20:44.676Z,0.00
2024-04-06T01:21:44.745Z,0.00
2024-04-06T01:22:44.684Z,0.00
2024-04-06T01:23:45.150Z,0.00
2024-04-06T01:24:47.317Z,0.00
2024-04-06T01:25:44.628Z,0.00
2024-04-06T01:26:44.816Z,0.00
2024-04-06T01:27:44.703Z,0.00
2024-04-06T01:28:44.594Z,0.00
2024-04-06T01:29:45.024Z,0.00
2024-04-06T01:30:44.554Z,0.00
2024-04-06T01:31:44.606Z,0.00
2024-04-06T01:32:44.529Z,0.00
2024-04-06T01:33:44.641Z,0.00
2024-04-06T01:34:44.474Z,0.00
2024-04-06T01:35:44.899Z,0.00
2024-04-06T01:36:44.481Z,0.00
2024-04-06T01:37:48.184Z,0.00
2024-04-06T01:38:44.438Z,0.00
2024-04-06T01:39:44.464Z,0.00
2024-04-06T01:40:44.445Z,0.00
2024-04-06T01:41:44.870Z,0.00
2024-04-06T01:42:44.415Z,0.00
2024-04-06T01:43:44.389Z,0.00
2024-04-06T01:44:44.451Z,0.00
2024-04-06T01:45:44.366Z,0.00
2024-04-06T01:46:44.377Z,0.00
2024-04-06T01:47:44.776Z,0.00
2024-04-06T01:48:44.341Z,0.00
2024-04-06T01:49:44.304Z,0.00
2024-04-06T01:50:44.308Z,0.00
2024-04-06T01:51:44.308Z,0.00
2024-04-06T01:52:44.719Z,0.00
2024-04-06T01:53:44.274Z,0.00
2024-04-06T01:54:44.265Z,0.00
2024-04-06T01:55:44.284Z,0.00
2024-04-06T01:56:44.202Z,0.00
2024-04-06T01:57:44.243Z,0.00
2024-04-06T01:58:44.612Z,0.00
2024-04-06T01:59:44.153Z,0.00
2024-04-06T02:00:44.194Z,0.00
2024-04-06T02:01:44.147Z,0.00
2024-04-06T02:02:45.934Z,0.00
2024-04-06T02:03:44.149Z,0.00
2024-04-06T02:04:44.531Z,0.00
2024-04-06T02:05:44.127Z,0.00
2024-04-06T02:06:44.104Z,0.00
2024-04-06T02:07:44.230Z,0.00
2024-04-06T02:08:44.130Z,0.00
2024-04-06T02:09:44.448Z,0.00
2024-04-06T02:10:44.079Z,0.00
2024-04-06T02:11:44.056Z,0.00
2024-04-06T02:12:44.017Z,0.00
2024-04-06T02:13:44.046Z,0.00
2024-04-06T02:14:43.999Z,0.00
2024-04-06T02:15:44.382Z,0.00
2024-04-06T02:16:43.995Z,0.00
2024-04-06T02:17:43.931Z,0.00
2024-04-06T02:18:43.919Z,0.00
2024-04-06T02:19:43.945Z,0.00
2024-04-06T02:20:44.368Z,0.00
2024-04-06T02:21:43.889Z,0.00
2024-04-06T02:22:43.893Z,0.00
2024-04-06T02:23:43.893Z,0.00
2024-04-06T02:24:43.960Z,0.00
2024-04-06T02:25:44.263Z,0.00
2024-04-06T02:26:43.821Z,0.00
2024-04-06T02:27:43.832Z,0.00
2024-04-06T02:28:43.788Z,0.00
2024-04-06T02:29:43.802Z,0.00
2024-04-06T02:30:44.220Z,0.00
2024-04-06T02:31:43.750Z,0.00
2024-04-06T02:32:43.747Z,0.00
2024-04-06T02:33:43.758Z,0.00
2024-04-06T02:34:43.731Z,0.00
2024-04-06T02:35:43.754Z,0.00
2024-04-06T02:36:44.099Z,0.00
2024-04-06T02:37:43.687Z,0.00
2024-04-06T02:38:43.693Z,0.00
2024-04-06T02:39:43.723Z,0.00
2024-04-06T02:40:43.695Z,0.00
2024-04-06T02:41:44.036Z,0.00
2024-04-06T02:42:43.621Z,0.00
2024-04-06T02:43:43.603Z,0.00
2024-04-06T02:44:43.594Z,0.00
2024-04-06T02:45:43.635Z,0.00
2024-04-06T02:46:43.664Z,0.00
2024-04-06T02:47:43.955Z,0.00
2024-04-06T02:48:43.543Z,0.00
2024-04-06T02:49:43.542Z,0.00
2024-04-06T02:50:43.674Z,0.00
2024-04-06T02:51:43.591Z,0.00
2024-04-06T02:52:44.144Z,0.00
2024-04-06T02:53:43.860Z,0.00
2024-04-06T02:54:43.565Z,0.00
2024-04-06T02:55:43.632Z,0.00
2024-04-06T02:56:43.491Z,0.00
2024-04-06T02:57:43.574Z,0.00
2024-04-06T02:58:43.840Z,0.00
2024-04-06T02:59:43.434Z,0.00
2024-04-06T03:00:43.381Z,0.00
2024-04-06T03:01:43.429Z,0.00
2024-04-06T03:02:43.346Z,0.00
2024-04-06T03:03:43.752Z,0.00
2024-04-06T03:04:43.372Z,0.00
2024-04-06T03:05:43.313Z,0.00
2024-04-06T03:06:43.336Z,0.00
2024-04-06T03:07:43.291Z,0.00
2024-04-06T03:08:43.278Z,0.00
2024-04-06T03:09:43.805Z,0.00
2024-04-06T03:10:43.272Z,0.00
2024-04-06T03:11:43.265Z,0.00
2024-04-06T03:12:43.228Z,0.00
2024-04-06T03:13:43.217Z,0.00
2024-04-06T03:14:43.259Z,0.00
2024-04-06T03:15:43.768Z,0.00
2024-04-06T03:16:43.215Z,0.00
2024-04-06T03:17:43.167Z,0.00
2024-04-06T03:18:43.152Z,0.00
2024-04-06T03:19:43.144Z,0.00
2024-04-06T03:20:43.137Z,0.00
2024-04-06T03:21:43.816Z,0.00
2024-04-06T03:22:43.122Z,0.00
2024-04-06T03:23:43.094Z,0.00
2024-04-06T03:24:43.086Z,0.00
2024-04-06T03:25:43.626Z,0.00
2024-04-06T03:26:43.714Z,0.00
2024-04-06T03:27:43.147Z,0.00
2024-04-06T03:28:43.028Z,0.00
2024-04-06T03:29:43.017Z,0.00
2024-04-06T03:30:42.987Z,0.00
2024-04-06T03:31:43.035Z,0.00
2024-04-06T03:32:43.599Z,0.00
2024-04-06T03:33:42.939Z,0.00
2024-04-06T03:34:42.950Z,0.00
2024-04-06T03:35:42.942Z,0.00
2024-04-06T03:36:42.913Z,0.00
2024-04-06T03:37:43.407Z,0.00
2024-04-06T03:38:42.874Z,0.00
2024-04-06T03:39:42.882Z,0.00
2024-04-06T03:40:42.872Z,0.00
2024-04-06T03:41:42.894Z,0.00
2024-04-06T03:42:42.863Z,0.00
2024-04-06T03:43:43.894Z,0.00
2024-04-06T03:44:42.872Z,0.00
2024-04-06T03:45:42.806Z,0.00
2024-04-06T03:46:42.810Z,0.00
2024-04-06T03:47:42.758Z,0.00
2024-04-06T03:48:42.801Z,0.00
2024-04-06T03:49:43.195Z,0.00
2024-04-06T03:50:42.730Z,0.00
2024-04-06T03:51:42.717Z,0.00
2024-04-06T03:52:42.720Z,0.00
2024-04-06T03:53:42.703Z,0.00
2024-04-06T03:54:42.689Z,0.00
2024-04-06T03:55:43.083Z,0.00
2024-04-06T03:56:42.815Z,0.00
2024-04-06T03:57:42.647Z,0.00
2024-04-06T03:58:42.603Z,0.00
2024-04-06T03:59:42.618Z,0.00
2024-04-06T04:00:43.028Z,0.00
2024-04-06T04:01:42.615Z,4.00
2024-04-06T04:02:42.615Z,4.00
2024-04-06T04:03:42.632Z,0.00
2024-04-06T04:04:42.553Z,0.00
2024-04-06T04:05:42.938Z,4.00
2024-04-06T04:06:42.606Z,4.00
2024-04-06T04:07:42.545Z,4.00
2024-04-06T04:08:42.502Z,4.00
2024-04-06T04:09:42.470Z,4.00
2024-04-06T04:10:42.481Z,8.00
2024-04-06T04:11:42.981Z,8.00
2024-04-06T04:12:42.483Z,8.00
2024-04-06T04:13:42.414Z,12.00
2024-04-06T04:14:42.412Z,12.00
2024-04-06T04:15:42.405Z,12.00
2024-04-06T04:16:42.813Z,20.00
2024-04-06T04:17:42.438Z,20.00
2024-04-06T04:18:42.380Z,24.00
2024-04-06T04:19:42.379Z,24.00
2024-04-06T04:20:42.345Z,32.00
2024-04-06T04:21:42.299Z,36.00
2024-04-06T04:22:42.722Z,40.00
2024-04-06T04:23:42.363Z,44.00
2024-04-06T04:24:42.310Z,48.00
2024-04-06T04:25:42.283Z,56.00
2024-04-06T04:26:42.265Z,60.00
2024-04-06T04:27:42.692Z,64.00
2024-04-06T04:28:42.356Z,68.00
2024-04-06T04:29:42.339Z,76.00
2024-04-06T04:30:42.210Z,84.00
2024-04-06T04:31:42.210Z,92.00
2024-04-06T04:32:42.293Z,100.00
2024-04-06T04:33:42.638Z,112.00
2024-04-06T04:34:42.243Z,120.00
2024-04-06T04:35:42.188Z,132.00
2024-04-06T04:36:42.150Z,144.00
2024-04-06T04:37:42.136Z,160.00
2024-04-06T04:38:42.530Z,172.00
2024-04-06T04:39:42.118Z,188.00
2024-04-06T04:40:42.201Z,200.00
2024-04-06T04:41:42.056Z,212.00
2024-04-06T04:42:42.098Z,228.00
2024-04-06T04:43:42.064Z,240.00
2024-04-06T04:44:46.368Z,252.00
2024-04-06T04:45:42.040Z,268.00
2024-04-06T04:46:42.090Z,284.00
2024-04-06T04:47:42.083Z,296.00
2024-04-06T04:48:42.002Z,316.00
2024-04-06T04:49:42.403Z,332.00
2024-04-06T04:50:41.985Z,356.00
2024-04-06T04:51:42.182Z,384.00
2024-04-06T04:52:41.961Z,420.00
2024-04-06T04:53:41.931Z,456.00
2024-04-06T04:54:41.987Z,488.00
2024-04-06T04:55:42.444Z,520.00
2024-04-06T04:56:41.876Z,564.00
2024-04-06T04:57:41.885Z,604.00
2024-04-06T04:58:41.860Z,632.00
2024-04-06T04:59:41.861Z,668.00
2024-04-06T05:00:42.242Z,696.00
2024-04-06T05:01:41.825Z,720.00
2024-04-06T05:02:41.854Z,744.00
2024-04-06T05:03:41.833Z,764.00
2024-04-06T05:04:41.768Z,792.00
2024-04-06T05:05:41.763Z,824.00
2024-04-06T05:06:42.185Z,852.00
2024-04-06T05:07:41.718Z,884.00
2024-04-06T05:08:41.832Z,904.00
2024-04-06T05:09:41.864Z,932.00
2024-04-06T05:10:41.726Z,972.00
2024-04-06T05:11:41.688Z,1008.00
2024-04-06T05:12:42.074Z,1040.00
2024-04-06T05:13:41.673Z,1052.00
2024-04-06T05:14:41.730Z,1076.00
2024-04-06T05:15:41.631Z,1092.00
2024-04-06T05:16:41.609Z,1100.00
2024-04-06T05:17:42.047Z,1100.00
2024-04-06T05:18:41.600Z,1084.00
2024-04-06T05:19:41.582Z,1096.00
2024-04-06T05:20:41.544Z,1124.00
2024-04-06T05:21:41.560Z,1144.00
2024-04-06T05:22:41.953Z,1184.00
2024-04-06T05:23:41.516Z,1204.00
2024-04-06T05:24:41.512Z,1220.00
2024-04-06T05:25:41.496Z,1232.00
2024-04-06T05:26:41.524Z,1220.00
2024-04-06T05:27:42.712Z,1248.00
2024-04-06T05:28:41.453Z,1296.00
2024-04-06T05:29:41.439Z,1336.00
2024-04-06T05:30:41.772Z,1368.00
2024-04-06T05:31:41.488Z,1404.00
2024-04-06T05:32:41.432Z,1448.00
2024-04-06T05:33:41.828Z,1488.00
2024-04-06T05:34:41.433Z,1540.00
2024-04-06T05:35:41.388Z,1584.00
2024-04-06T05:36:41.342Z,1616.00
2024-04-06T05:37:41.358Z,1652.00
2024-04-06T05:38:41.717Z,1684.00
2024-04-06T05:39:41.370Z,1716.00
2024-04-06T05:40:41.332Z,1748.00
2024-04-06T05:41:41.282Z,1740.00
2024-04-06T05:42:41.337Z,1756.00
2024-04-06T05:43:41.758Z,1764.00
2024-04-06T05:44:41.260Z,1776.00
2024-04-06T05:45:41.218Z,1792.00
2024-04-06T05:46:41.214Z,1816.00
2024-04-06T05:47:41.258Z,1832.00
2024-04-06T05:48:41.178Z,1848.00
2024-04-06T05:49:41.648Z,1872.00
2024-04-06T05:50:41.175Z,1908.00
2024-04-06T05:51:41.133Z,1908.00
2024-04-06T05:52:41.158Z,1924.00
2024-04-06T05:53:41.118Z,1960.00
2024-04-06T05:54:41.623Z,2004.00
2024-04-06T05:55:41.239Z,2028.00
2024-04-06T05:56:41.097Z,2088.00
2024-04-06T05:57:41.115Z,2164.00
2024-04-06T05:58:41.090Z,2224.00
2024-04-06T05:59:41.089Z,2276.00
2024-04-06T06:00:41.544Z,2304.00
2024-04-06T06:01:41.681Z,2356.00
2024-04-06T06:02:41.089Z,2388.00
2024-04-06T06:03:41.004Z,2444.00
2024-04-06T06:04:41.009Z,2484.00
2024-04-06T06:05:41.521Z,2528.00
2024-04-06T06:06:41.127Z,2596.00
2024-04-06T06:07:40.915Z,2668.00
2024-04-06T06:08:40.937Z,2712.00
2024-04-06T06:09:40.940Z,2760.00
2024-04-06T06:10:40.916Z,2824.00
2024-04-06T06:11:41.389Z,2860.00
2024-04-06T06:12:41.238Z,2892.00
2024-04-06T06:13:40.896Z,2840.00
2024-04-06T06:14:40.862Z,2824.00
2024-04-06T06:15:40.849Z,2764.00
2024-04-06T06:17:08.970Z,2732.00
2024-04-06T06:17:41.812Z,2732.00
2024-04-06T06:18:40.842Z,2744.00
2024-04-06T06:19:40.814Z,2828.00
2024-04-06T06:20:40.795Z,2904.00
2024-04-06T06:21:43.206Z,3060.00
2024-04-06T06:22:41.158Z,3252.00
2024-04-06T06:23:40.764Z,3468.00
2024-04-06T06:24:40.707Z,3712.00
2024-04-06T06:25:40.734Z,3836.00
2024-04-06T06:26:40.696Z,3916.00
2024-04-06T06:27:42.756Z,3912.00
2024-04-06T06:28:40.712Z,3844.00
2024-04-06T06:29:40.663Z,3768.00
2024-04-06T06:30:40.658Z,3732.00
2024-04-06T06:31:40.657Z,3740.00
2024-04-06T06:32:41.064Z,3780.00
2024-04-06T06:33:40.634Z,3660.00
2024-04-06T06:34:40.657Z,3372.00
2024-04-06T06:40:41.330Z,3076.00
2024-04-06T06:40:41.660Z,3984.00
2024-04-06T06:41:43.138Z,4312.00
2024-04-06T06:42:40.900Z,4272.00
2024-04-06T06:43:40.455Z,3904.00
2024-04-06T06:44:40.506Z,3460.00
2024-04-06T06:45:40.490Z,3016.00
2024-04-06T06:46:40.485Z,2924.00
2024-04-06T06:47:41.859Z,2892.00
2024-04-06T06:48:40.407Z,3136.00
2024-04-06T06:49:40.429Z,3596.00
2024-04-06T06:50:40.519Z,4092.00
2024-04-06T06:51:40.479Z,4288.00
2024-04-06T06:52:40.843Z,4320.00
2024-04-06T06:53:40.459Z,4332.00
2024-04-06T06:54:42.610Z,4400.00
2024-04-06T06:55:42.793Z,4580.00
2024-04-06T06:56:40.345Z,4768.00
2024-04-06T06:57:40.385Z,4744.00
2024-04-06T06:58:40.745Z,4472.00
2024-04-06T07:00:40.379Z,3956.00
2024-04-06T07:01:40.286Z,3688.00
2024-04-06T07:02:40.273Z,3464.00
2024-04-06T07:03:40.265Z,3320.00
2024-04-06T07:04:40.646Z,3148.00
2024-04-06T07:05:40.217Z,2976.00
2024-04-06T07:07:40.175Z,2864.00
2024-04-06T07:08:40.153Z,2848.00
2024-04-06T07:09:40.572Z,2792.00
2024-04-06T07:10:40.246Z,2708.00
2024-04-06T07:11:43.987Z,2760.00
2024-04-06T07:12:40.111Z,3004.00
2024-04-06T07:13:40.080Z,3144.00
2024-04-06T07:14:40.455Z,3116.00
2024-04-06T07:15:40.106Z,2972.00
2024-04-06T07:16:40.134Z,3632.00
2024-04-06T07:17:40.048Z,3244.00
2024-04-06T07:18:40.018Z,3108.00
2024-04-06T07:19:40.077Z,3264.00
2024-04-06T07:20:40.431Z,4164.00
2024-04-06T07:21:39.970Z,4604.00
2024-04-06T07:22:40.007Z,4272.00
2024-04-06T07:23:39.993Z,4208.00
2024-04-06T07:24:40.074Z,4628.00
2024-04-06T07:25:39.999Z,4780.00
2024-04-06T07:26:40.335Z,5056.00
2024-04-06T07:27:39.904Z,5232.00
2024-04-06T07:28:39.903Z,5300.00
2024-04-06T07:29:39.991Z,5424.00
2024-04-06T07:30:39.946Z,5844.00
2024-04-06T07:31:40.292Z,6088.00
2024-04-06T07:32:39.858Z,6176.00
2024-04-06T07:33:39.873Z,6000.00
2024-04-06T07:34:39.860Z,6028.00
2024-04-06T07:35:39.831Z,5844.00
2024-04-06T07:36:40.263Z,5800.00
2024-04-06T07:37:39.790Z,6164.00
2024-04-06T07:39:39.768Z,6524.00
2024-04-06T07:40:39.776Z,6368.00
2024-04-06T07:41:39.751Z,4588.00
2024-04-06T07:42:40.197Z,3560.00
2024-04-06T07:43:39.746Z,3784.00
2024-04-06T07:44:39.737Z,3524.00
2024-04-06T07:45:39.684Z,3964.00
2024-04-06T07:46:39.703Z,4164.00
2024-04-06T07:47:40.054Z,6060.00
2024-04-06T07:48:39.638Z,6060.00
2024-04-06T07:49:39.624Z,5912.00
2024-04-06T07:50:39.631Z,6352.00
2024-04-06T07:51:39.645Z,6500.00
2024-04-06T07:52:40.017Z,6604.00
2024-04-06T07:53:40.279Z,6852.00
2024-04-06T07:54:39.562Z,7832.00
2024-04-06T07:55:39.588Z,8268.00
2024-04-06T07:56:39.562Z,8200.00
2024-04-06T07:57:39.559Z,7716.00
2024-04-06T07:58:39.952Z,6572.00
2024-04-06T07:59:39.479Z,6864.00
2024-04-06T08:00:39.502Z,6820.00
2024-04-06T08:01:39.463Z,6696.00
2024-04-06T08:02:39.482Z,6764.00
2024-04-06T08:03:39.845Z,6828.00
2024-04-06T08:04:39.459Z,6852.00
2024-04-06T08:05:39.452Z,6892.00
2024-04-06T08:06:39.417Z,6904.00
2024-04-06T08:07:39.466Z,6860.00
2024-04-06T08:08:39.761Z,6876.00
2024-04-06T08:09:39.370Z,6876.00
2024-04-06T08:10:39.378Z,6944.00
2024-04-06T08:11:39.326Z,7052.00
2024-04-06T08:12:39.554Z,7112.00
2024-04-06T08:13:39.721Z,7112.00
2024-04-06T08:14:39.295Z,7148.00
2024-04-06T08:15:39.320Z,7124.00
2024-04-06T08:16:39.450Z,7284.00
2024-04-06T08:17:39.270Z,7768.00
2024-04-06T08:18:39.252Z,8580.00
2024-04-06T08:19:39.615Z,10036.00
2024-04-06T08:20:39.240Z,11412.00
2024-04-06T08:21:39.218Z,12004.00
2024-04-06T08:22:39.278Z,12168.00
2024-04-06T08:23:39.186Z,12216.00
2024-04-06T08:24:39.163Z,9372.00
2024-04-06T08:25:39.548Z,9772.00
2024-04-06T08:26:39.132Z,10436.00
2024-04-06T08:27:39.168Z,10328.00
2024-04-06T08:28:41.595Z,7960.00
2024-04-06T08:29:39.123Z,5188.00
2024-04-06T08:30:39.570Z,4900.00
2024-04-06T08:31:39.084Z,5320.00
2024-04-06T08:32:39.131Z,7480.00
2024-04-06T08:33:39.754Z,8988.00
2024-04-06T08:34:39.009Z,5548.00
2024-04-06T08:35:39.044Z,7816.00
2024-04-06T08:36:39.448Z,8944.00
2024-04-06T08:37:39.013Z,6840.00
2024-04-06T08:38:39.016Z,9140.00
2024-04-06T08:39:38.969Z,8468.00
2024-04-06T08:40:39.006Z,4740.00
2024-04-06T08:41:38.943Z,8256.00
2024-04-06T08:42:39.350Z,8512.00
2024-04-06T08:43:38.954Z,8936.00
2024-04-06T08:44:38.955Z,9268.00
2024-04-06T08:45:38.987Z,9912.00
2024-04-06T08:46:38.889Z,6516.00
2024-04-06T08:47:39.284Z,11308.00
2024-04-06T08:48:38.879Z,13244.00
2024-04-06T08:49:39.005Z,13980.00
2024-04-06T08:50:39.505Z,11208.00
2024-04-06T08:51:38.842Z,9544.00
2024-04-06T08:52:39.236Z,12188.00
2024-04-06T08:53:38.934Z,12340.00
2024-04-06T08:54:38.796Z,14096.00
2024-04-06T08:55:38.816Z,13960.00
2024-04-06T08:56:38.795Z,11808.00
2024-04-06T08:57:39.294Z,10392.00
2024-04-06T08:58:38.747Z,9664.00
2024-04-06T08:59:38.722Z,10684.00
2024-04-06T09:00:38.769Z,11532.00
2024-04-06T09:01:38.752Z,13036.00
2024-04-06T09:02:38.846Z,14176.00
2024-04-06T09:03:39.166Z,13716.00
2024-04-06T09:04:38.766Z,7984.00
2024-04-06T09:05:38.617Z,7856.00
2024-04-06T09:06:38.650Z,11404.00
2024-04-06T09:07:38.708Z,7284.00
2024-04-06T09:08:39.127Z,8708.00
2024-04-06T09:09:38.598Z,14092.00
2024-04-06T09:10:38.553Z,12448.00
2024-04-06T09:11:38.575Z,11692.00
2024-04-06T09:12:38.587Z,9380.00
2024-04-06T09:13:39.086Z,10316.00
2024-04-06T09:14:38.534Z,14976.00
2024-04-06T09:15:38.481Z,15712.00
2024-04-06T09:16:38.615Z,11164.00
2024-04-06T09:17:38.548Z,9076.00
2024-04-06T09:18:38.470Z,14848.00
2024-04-06T09:19:38.949Z,14656.00
2024-04-06T09:20:38.516Z,14032.00
2024-04-06T09:21:38.413Z,13796.00
2024-04-06T09:22:38.439Z,12696.00
2024-04-06T09:23:38.404Z,12116.00
2024-04-06T09:24:38.873Z,12404.00
2024-04-06T09:25:38.377Z,13652.00
2024-04-06T09:26:38.406Z,14192.00
2024-04-06T09:27:38.401Z,13004.00
2024-04-06T09:28:38.367Z,12580.00
2024-04-06T09:29:38.824Z,12848.00
2024-04-06T09:30:38.448Z,13640.00
2024-04-06T09:31:38.342Z,14332.00
2024-04-06T09:32:38.335Z,15104.00
2024-04-06T09:33:38.294Z,14288.00
2024-04-06T09:34:38.748Z,12192.00
2024-04-06T09:35:39.004Z,12076.00
2024-04-06T09:36:38.246Z,11996.00
2024-04-06T09:37:38.277Z,11884.00
2024-04-06T09:38:38.270Z,11876.00
2024-04-06T09:39:38.681Z,12688.00
2024-04-06T09:40:38.253Z,13076.00
2024-04-06T09:41:38.318Z,13856.00
2024-04-06T09:42:38.252Z,13604.00
2024-04-06T09:43:38.157Z,8764.00
2024-04-06T09:44:38.629Z,7212.00
2024-04-06T09:45:38.181Z,11168.00
2024-04-06T09:46:38.134Z,11056.00
2024-04-06T09:47:38.254Z,11976.00
2024-04-06T09:48:38.131Z,12192.00
2024-04-06T09:49:38.104Z,13272.00
2024-04-06T09:50:38.498Z,6824.00
2024-04-06T09:51:38.183Z,12004.00
2024-04-06T09:52:38.086Z,14336.00
2024-04-06T09:53:38.159Z,8288.00
2024-04-06T09:54:38.066Z,7916.00
2024-04-06T09:55:38.513Z,15520.00
2024-04-06T09:56:38.020Z,7440.00
2024-04-06T09:57:38.015Z,13368.00
2024-04-06T09:58:38.146Z,13796.00
2024-04-06T09:59:38.065Z,12464.00
2024-04-06T10:00:38.002Z,6264.00
2024-04-06T10:01:38.344Z,6796.00
2024-04-06T10:02:37.905Z,6728.00
2024-04-06T10:03:37.946Z,15680.00
2024-04-06T10:04:39.956Z,17024.00
2024-04-06T10:05:37.869Z,18528.00
2024-04-06T10:06:37.847Z,18912.00
2024-04-06T10:07:38.315Z,20096.00
2024-04-06T10:08:37.868Z,17760.00
2024-04-06T10:09:37.845Z,17280.00
2024-04-06T10:10:37.858Z,18176.00
2024-04-06T10:11:37.778Z,20896.00
2024-04-06T10:12:38.443Z,19584.00
2024-04-06T10:13:37.769Z,17344.00
2024-04-06T10:14:37.788Z,17696.00
2024-04-06T10:15:37.797Z,17120.00
2024-04-06T10:16:37.738Z,18400.00
2024-04-06T10:17:37.726Z,18496.00
2024-04-06T10:18:38.141Z,17280.00
2024-04-06T10:19:37.721Z,15968.00
2024-04-06T10:20:37.760Z,9488.00
2024-04-06T10:21:37.676Z,17760.00
2024-04-06T10:22:37.677Z,15968.00
2024-04-06T10:23:37.641Z,15328.00
2024-04-06T10:24:38.761Z,15936.00
2024-04-06T10:25:37.641Z,17568.00
2024-04-06T10:26:37.683Z,19904.00
2024-04-06T10:27:37.671Z,15904.00
2024-04-06T10:28:37.578Z,8488.00
2024-04-06T10:29:37.989Z,10004.00
2024-04-06T10:30:37.606Z,21920.00
2024-04-06T10:31:42.665Z,23104.00
2024-04-06T10:32:39.036Z,22048.00
2024-04-06T10:33:37.609Z,9620.00
2024-04-06T10:34:45.960Z,20640.00
2024-04-06T10:35:39.481Z,19584.00
2024-04-06T10:36:37.538Z,9148.00
2024-04-06T10:37:37.514Z,7868.00
2024-04-06T10:38:37.453Z,12312.00
2024-04-06T10:39:37.412Z,21184.00
2024-04-06T10:40:37.594Z,20352.00
2024-04-06T10:41:37.825Z,19776.00
2024-04-06T10:42:37.383Z,21312.00
2024-04-06T10:43:37.579Z,21376.00
2024-04-06T10:44:37.382Z,21536.00
2024-04-06T10:45:37.668Z,22176.00
2024-04-06T10:46:37.852Z,22944.00
2024-04-06T10:47:37.402Z,21760.00
2024-04-06T10:48:37.346Z,21280.00
2024-04-06T10:49:37.504Z,22208.00
2024-04-06T10:50:37.309Z,24736.00
2024-04-06T10:51:37.281Z,25696.00
2024-04-06T10:52:37.687Z,29088.00
2024-04-06T10:53:37.291Z,13516.00
2024-04-06T10:54:38.957Z,27648.00
2024-04-06T10:55:37.441Z,28256.00
2024-04-06T10:56:37.260Z,30176.00
2024-04-06T10:57:37.659Z,30272.00
2024-04-06T10:58:37.191Z,22112.00
2024-04-06T10:59:37.233Z,29312.00
2024-04-06T11:00:38.144Z,29472.00
2024-04-06T11:01:37.218Z,29888.00
2024-04-06T11:02:37.666Z,21952.00
2024-04-06T11:03:37.187Z,30208.00
2024-04-06T11:04:37.133Z,16480.00
2024-04-06T11:05:37.156Z,20576.00
2024-04-06T11:06:38.795Z,26592.00
2024-04-06T11:07:37.601Z,19264.00
2024-04-06T11:08:37.090Z,21216.00
2024-04-06T11:09:37.063Z,25248.00
2024-04-06T11:10:37.103Z,18368.00
2024-04-06T11:11:37.033Z,17600.00
2024-04-06T11:12:39.018Z,15296.00
2024-04-06T11:13:37.485Z,25920.00
2024-04-06T11:14:37.080Z,22752.00
2024-04-06T11:15:36.991Z,23392.00
2024-04-06T11:16:37.022Z,36032.00
2024-04-06T11:17:37.050Z,31520.00
2024-04-06T11:18:37.183Z,27168.00
2024-04-06T11:19:37.350Z,26944.00
2024-04-06T11:20:37.109Z,45024.00
2024-04-06T11:21:36.913Z,50560.00
2024-04-06T11:22:36.926Z,59072.00
2024-04-06T11:23:37.032Z,56032.00
2024-04-06T11:24:38.816Z,60992.00
2024-04-06T11:25:37.333Z,58752.00
2024-04-06T11:26:36.889Z,56640.00
2024-04-06T11:27:36.877Z,10496.00
2024-04-06T11:28:36.913Z,15744.00
2024-04-06T11:29:37.043Z,52832.00
2024-04-06T11:30:37.195Z,50880.00
2024-04-06T11:31:36.808Z,50112.00
2024-04-06T11:32:36.897Z,48736.00
2024-04-06T11:33:36.812Z,48960.00
2024-04-06T11:34:36.805Z,50656.00
2024-04-06T11:35:37.198Z,45440.00
2024-04-06T11:36:36.706Z,18016.00
2024-04-06T11:37:36.759Z,42912.00
2024-04-06T11:38:36.704Z,41312.00
2024-04-06T11:39:36.870Z,41824.00
2024-04-06T11:40:37.099Z,40384.00
2024-04-06T11:41:36.674Z,37536.00
2024-04-06T11:42:36.827Z,38144.00
2024-04-06T11:43:36.632Z,38592.00
2024-04-06T11:44:36.665Z,41120.00
2024-04-06T11:45:36.623Z,39424.00
2024-04-06T11:46:37.133Z,38080.00
2024-04-06T11:47:36.674Z,37472.00
2024-04-06T11:48:36.573Z,36352.00
2024-04-06T11:49:36.555Z,30912.00
2024-04-06T11:50:36.592Z,22752.00
2024-04-06T11:51:37.022Z,25472.00
2024-04-06T11:52:36.687Z,33984.00
2024-04-06T11:53:36.542Z,32320.00
2024-04-06T11:54:36.531Z,22944.00
2024-04-06T11:55:36.508Z,23136.00
2024-04-06T11:56:36.519Z,34080.00
2024-04-06T11:57:36.911Z,33280.00
2024-04-06T11:58:36.492Z,32544.00
2024-04-06T11:59:36.450Z,34944.00
2024-04-06T12:00:36.485Z,28832.00
2024-04-06T12:01:36.515Z,16192.00
2024-04-06T12:02:36.464Z,25568.00
2024-04-06T12:03:36.887Z,37024.00
2024-04-06T12:04:36.392Z,34112.00
2024-04-06T12:05:36.445Z,37504.00
2024-04-06T12:06:36.370Z,16928.00
2024-04-06T12:07:36.420Z,28864.00
2024-04-06T12:08:36.818Z,19008.00
2024-04-06T12:09:36.315Z,26016.00
2024-04-06T12:10:36.524Z,18432.00
2024-04-06T12:11:36.311Z,15488.00
2024-04-06T12:12:36.377Z,11308.00
2024-04-06T12:13:36.369Z,13040.00
2024-04-06T12:14:36.778Z,22432.00
2024-04-06T12:15:36.267Z,35552.00
2024-04-06T12:16:36.271Z,35680.00
2024-04-06T12:17:36.246Z,34816.00
2024-04-06T12:18:36.202Z,32864.00
2024-04-06T12:19:36.670Z,33568.00
2024-04-06T12:20:36.237Z,26112.00
2024-04-06T12:21:36.167Z,24576.00
2024-04-06T12:22:36.252Z,35104.00
2024-04-06T12:23:36.292Z,35200.00
2024-04-06T12:24:36.566Z,35616.00
2024-04-06T12:25:36.256Z,35200.00
2024-04-06T12:26:36.111Z,34528.00
2024-04-06T12:27:36.169Z,35648.00
2024-04-06T12:28:36.107Z,36736.00
2024-04-06T12:29:36.533Z,35648.00
2024-04-06T12:30:36.194Z,27968.00
2024-04-06T12:31:36.195Z,18464.00